Time;durP1;ratioP1;P1;durP2;ratioP2;P2;SDS_P1;SDS_P2;PMS_P1;PMS_P2;Temp;Humidity;BMP_temperature;BMP_pressure;BME280_temperature;BME280_humidity;BME280_pressure;Samples;Min_cycle;Max_cycle;Signal;HPM_P1;HPM_P2
2023/06/07 00:02:02;;;;;;;26.30;19.87;;;26.10;99.90;;;;;;1970584;71;21092;-80
2023/06/07 00:04:35;;;;;;;24.43;19.77;;;26.20;99.90;;;;;;1966171;71;21106;-80
2023/06/07 00:07:06;;;;;;;30.62;20.48;;;26.20;99.90;;;;;;1978515;70;21167;-79
2023/06/07 00:09:38;;;;;;;26.07;20.55;;;26.20;99.90;;;;;;1936693;72;21261;-79
2023/06/07 00:12:10;;;;;;;31.37;21.62;;;26.30;99.90;;;;;;1981938;71;21108;-80
2023/06/07 00:14:43;;;;;;;29.80;22.17;;;26.30;99.90;;;;;;1974849;71;21264;-81
2023/06/07 00:17:15;;;;;;;28.70;23.02;;;26.30;99.90;;;;;;1974264;70;21173;-80
2023/06/07 00:19:46;;;;;;;28.70;22.87;;;26.40;99.90;;;;;;1981222;71;21136;-81
2023/06/07 00:22:17;;;;;;;30.77;22.37;;;26.40;99.90;;;;;;1971086;71;21201;-82
2023/06/07 00:24:50;;;;;;;31.57;23.10;;;26.40;99.90;;;;;;1977623;71;21115;-82
2023/06/07 00:27:22;;;;;;;31.12;23.02;;;26.40;99.90;;;;;;1971145;70;21229;-82
2023/06/07 00:29:54;;;;;;;30.10;22.27;;;26.50;99.90;;;;;;1968575;71;21608;-82
2023/06/07 00:32:25;;;;;;;25.97;21.52;;;26.50;99.90;;;;;;1989071;71;21109;-81
2023/06/07 00:34:56;;;;;;;29.77;22.67;;;26.50;99.90;;;;;;1970925;70;21121;-82
2023/06/07 00:37:28;;;;;;;32.08;22.55;;;26.50;99.90;;;;;;1982719;71;21124;-82
2023/06/07 00:39:59;;;;;;;28.17;21.25;;;26.60;99.90;;;;;;1972598;70;21191;-82
2023/06/07 00:42:31;;;;;;;26.17;21.20;;;26.60;99.90;;;;;;1995720;71;21196;-82
2023/06/07 00:45:02;;;;;;;27.87;21.90;;;26.60;99.90;;;;;;1973867;71;21116;-82
2023/06/07 00:50:35;;;;;;;30.17;21.30;;;26.60;99.90;;;;;;1940800;72;21189;-82
2023/06/07 00:53:08;;;;;;;31.27;21.57;;;26.60;99.90;;;;;;1956242;72;21092;-81
2023/06/07 00:55:40;;;;;;;28.07;21.10;;;26.70;99.90;;;;;;1941021;72;21198;-75
2023/06/07 00:58:12;;;;;;;27.85;20.40;;;26.70;99.90;;;;;;1944362;72;21745;-76
2023/06/07 01:00:43;;;;;;;30.50;21.95;;;26.80;99.90;;;;;;1937936;72;21660;-76
2023/06/07 01:03:15;;;;;;;28.25;22.42;;;26.80;99.90;;;;;;1941289;72;21186;-75
2023/06/07 01:05:48;;;;;;;29.27;22.20;;;26.80;99.90;;;;;;1944242;72;21151;-75
2023/06/07 01:08:20;;;;;;;55.25;23.12;;;26.90;99.90;;;;;;1940222;72;21132;-73
2023/06/07 01:10:52;;;;;;;32.83;22.52;;;26.90;99.90;;;;;;1943967;72;21151;-74
2023/06/07 01:13:23;;;;;;;25.88;20.23;;;27.00;99.90;;;;;;1941284;73;22076;-73
2023/06/07 01:15:54;;;;;;;27.93;20.10;;;27.10;99.90;;;;;;1942589;72;21623;-74
2023/06/07 01:18:26;;;;;;;23.70;18.82;;;27.20;99.90;;;;;;1947090;72;21179;-74
2023/06/07 01:20:59;;;;;;;27.95;18.90;;;27.20;99.90;;;;;;1941604;72;21626;-75
2023/06/07 01:23:32;;;;;;;22.77;17.25;;;27.30;99.90;;;;;;1942307;73;21116;-76
2023/06/07 01:26:05;;;;;;;31.07;19.35;;;27.30;99.90;;;;;;1945268;72;21181;-74
2023/06/07 01:28:45;;;;;;;23.67;17.70;;;27.30;99.90;;;;;;1941914;73;21240;-73
2023/06/07 01:31:16;;;;;;;;;;;27.40;99.90;;;;;;1942865;72;21287;-74
2023/06/07 01:33:47;;;;;;;25.05;18.62;;;27.40;99.90;;;;;;1941586;72;20172;-73
2023/06/07 01:36:20;;;;;;;21.62;15.88;;;27.50;99.90;;;;;;1938444;72;21162;-74
2023/06/07 01:38:51;;;;;;;29.25;17.20;;;27.50;99.90;;;;;;1939887;73;21112;-74
2023/06/07 01:41:23;;;;;;;35.73;16.75;;;27.60;99.90;;;;;;1943797;73;21589;-76
2023/06/07 01:43:55;;;;;;;27.82;17.42;;;27.60;99.90;;;;;;1949319;73;21950;-74
2023/06/07 01:46:28;;;;;;;24.60;16.75;;;27.70;99.90;;;;;;1942857;72;21183;-75
2023/06/07 01:49:00;;;;;;;20.72;16.50;;;27.70;99.90;;;;;;1942885;72;21215;-78
2023/06/07 01:51:32;;;;;;;20.80;15.38;;;27.80;99.90;;;;;;1950092;73;21125;-74
2023/06/07 01:54:04;;;;;;;24.55;16.65;;;27.80;99.90;;;;;;1899636;74;21164;-73
2023/06/07 01:56:50;;;;;;;22.00;16.97;;;27.90;99.90;;;;;;1940913;73;21799;-74
2023/06/07 01:59:27;;;;;;;88.97;22.48;;;27.90;99.90;;;;;;1937562;72;21111;-75
2023/06/07 02:02:26;;;;;;;31.97;16.32;;;28.00;99.90;;;;;;1941047;72;21169;-74
2023/06/07 02:05:00;;;;;;;28.32;16.55;;;28.00;99.90;;;;;;1941729;72;21117;-73
2023/06/07 02:07:35;;;;;;;26.48;16.30;;;28.00;99.90;;;;;;1941953;72;21231;-73
2023/06/07 02:10:07;;;;;;;24.47;16.70;;;28.00;99.90;;;;;;1941395;72;21492;-76
2023/06/07 02:12:42;;;;;;;23.45;16.52;;;28.00;99.90;;;;;;1940912;72;21658;-74
2023/06/07 02:15:19;;;;;;;29.80;15.68;;;28.00;99.90;;;;;;1972363;73;21115;-77
2023/06/07 02:17:57;;;;;;;28.62;16.00;;;28.10;99.90;;;;;;1949690;72;21214;-75
2023/06/07 02:20:28;;;;;;;24.52;15.63;;;28.10;99.90;;;;;;1947725;72;22046;-72
2023/06/07 02:23:01;;;;;;;31.50;15.18;;;28.10;99.90;;;;;;1940529;73;21179;-75
2023/06/07 02:25:34;;;;;;;28.85;15.20;;;28.20;99.90;;;;;;1925747;73;21501;-73
2023/06/07 02:28:05;;;;;;;27.15;14.18;;;28.30;99.90;;;;;;1942914;73;21133;-86
2023/06/07 02:30:39;;;;;;;17.80;14.73;;;28.40;99.90;;;;;;1893925;74;21123;-83
2023/06/07 02:33:13;;;;;;;21.25;14.35;;;28.40;99.90;;;;;;1940073;73;21152;-79
2023/06/07 02:35:45;;;;;;;25.95;15.72;;;28.50;99.90;;;;;;1940152;73;21092;-74
2023/06/07 02:38:16;;;;;;;18.87;13.93;;;28.60;99.90;;;;;;1883949;75;21124;-76
2023/06/07 02:40:54;;;;;;;18.27;13.80;;;28.60;99.90;;;;;;1937070;72;21180;-83
2023/06/07 02:43:25;;;;;;;20.12;14.55;;;28.70;99.90;;;;;;1895826;73;21572;-82
2023/06/07 02:45:56;;;;;;;18.02;13.93;;;28.80;99.90;;;;;;1882971;74;21156;-83
2023/06/07 02:48:28;;;;;;;18.35;13.90;;;28.80;99.90;;;;;;1940750;73;21108;-83
2023/06/07 02:51:00;;;;;;;22.93;13.72;;;28.90;99.90;;;;;;1953589;72;21697;-83
2023/06/07 02:53:32;;;;;;;17.75;13.05;;;28.90;99.90;;;;;;1944740;72;21692;-83
2023/06/07 02:56:04;;;;;;;22.45;14.55;;;29.00;99.90;;;;;;1951327;72;21538;-82
2023/06/07 02:58:35;;;;;;;21.48;13.38;;;29.00;99.90;;;;;;1943151;73;21136;-83
2023/06/07 03:01:10;;;;;;;22.27;13.72;;;29.10;99.90;;;;;;1947552;72;21225;-84
2023/06/07 03:03:43;;;;;;;17.67;12.55;;;29.10;99.90;;;;;;1943555;72;21521;-82
2023/06/07 03:06:15;;;;;;;18.65;13.68;;;29.10;99.90;;;;;;1941736;72;21133;-84
2023/06/07 03:08:46;;;;;;;15.93;13.58;;;29.10;99.90;;;;;;1944718;73;21182;-82
2023/06/07 03:11:17;;;;;;;18.35;13.18;;;29.20;99.90;;;;;;1943959;72;21175;-83
2023/06/07 03:13:49;;;;;;;20.70;13.68;;;29.20;99.90;;;;;;1945054;73;21139;-83
2023/06/07 03:16:22;;;;;;;17.62;13.55;;;29.40;99.90;;;;;;1941212;73;21151;-85
2023/06/07 03:18:53;;;;;;;18.07;13.13;;;29.50;99.90;;;;;;1934484;73;21248;-84
2023/06/07 03:21:24;;;;;;;43.08;16.40;;;29.60;99.90;;;;;;1944846;72;21193;-85
2023/06/07 03:23:55;;;;;;;21.52;12.73;;;29.80;99.90;;;;;;1942134;73;21084;-83
2023/06/07 03:26:27;;;;;;;15.72;13.03;;;29.90;99.90;;;;;;1945604;73;21132;-84
2023/06/07 03:28:58;;;;;;;19.20;12.07;;;30.00;99.90;;;;;;1943087;72;21263;-83
2023/06/07 03:31:34;;;;;;;15.25;12.65;;;30.10;99.90;;;;;;1943424;72;21176;-84
2023/06/07 03:34:03;;;;;;;17.05;11.38;;;30.20;99.90;;;;;;1935055;72;21116;-83
2023/06/07 03:36:37;;;;;;;17.12;12.10;;;30.30;99.90;;;;;;1948964;72;21268;-84
2023/06/07 03:39:11;;;;;;;16.62;11.97;;;30.30;99.90;;;;;;1940146;73;21181;-82
2023/06/07 03:41:42;;;;;;;18.37;12.37;;;30.30;99.90;;;;;;1948556;72;21104;-83
2023/06/07 03:44:20;;;;;;;17.82;12.50;;;30.40;99.90;;;;;;1943658;73;21188;-85
2023/06/07 03:46:51;;;;;;;15.00;12.03;;;30.40;99.90;;;;;;1941751;72;21195;-84
2023/06/07 03:49:23;;;;;;;15.85;12.53;;;30.60;99.90;;;;;;1944916;72;21602;-84
2023/06/07 03:51:54;;;;;;;13.70;11.57;;;30.60;99.90;;;;;;1884503;75;21159;-77
2023/06/07 03:54:26;;;;;;;16.20;11.88;;;30.70;99.90;;;;;;1939962;72;21123;-76
2023/06/07 03:56:57;;;;;;;19.75;12.60;;;30.80;99.90;;;;;;1943228;73;21676;-77
2023/06/07 03:59:29;;;;;;;20.15;12.35;;;30.80;99.90;;;;;;1943461;72;21169;-77
2023/06/07 04:02:01;;;;;;;20.90;13.20;;;30.80;99.90;;;;;;1943093;72;21819;-75
2023/06/07 04:04:34;;;;;;;18.87;13.13;;;30.80;99.90;;;;;;1940241;73;21074;-75
2023/06/07 04:07:07;;;;;;;28.07;13.55;;;30.90;99.90;;;;;;1941408;73;21124;-72
2023/06/07 04:09:39;;;;;;;23.95;13.88;;;30.90;99.90;;;;;;1935297;73;21185;-75
2023/06/07 04:12:11;;;;;;;19.32;12.13;;;31.00;99.90;;;;;;1940350;72;21792;-77
2023/06/07 04:14:42;;;;;;;16.93;11.57;;;31.00;99.90;;;;;;1945079;73;21127;-76
2023/06/07 04:17:14;;;;;;;16.57;11.75;;;31.10;99.90;;;;;;1945323;73;21175;-77
2023/06/07 04:19:45;;;;;;;15.03;11.55;;;31.20;99.90;;;;;;1944183;72;21166;-78
2023/06/07 04:22:18;;;;;;;15.80;10.93;;;31.30;99.90;;;;;;1937161;72;21187;-76
2023/06/07 04:24:53;;;;;;;15.23;11.40;;;31.30;99.90;;;;;;1946261;73;21193;-76
2023/06/07 04:27:29;;;;;;;16.80;11.12;;;31.40;99.90;;;;;;1941628;73;21177;-76
2023/06/07 04:30:01;;;;;;;28.67;12.28;;;31.50;99.90;;;;;;1940909;72;21100;-76
2023/06/07 04:32:33;;;;;;;15.48;11.93;;;;;;;;;;1947880;73;21120;-75
2023/06/07 04:35:04;;;;;;;13.18;11.55;;;31.70;99.90;;;;;;1944461;73;21124;-76
2023/06/07 04:37:36;;;;;;;17.70;11.78;;;31.70;99.90;;;;;;1943806;72;21194;-75
2023/06/07 04:40:09;;;;;;;24.07;12.28;;;31.80;99.90;;;;;;1941474;73;21163;-75
2023/06/07 04:42:46;;;;;;;16.55;10.48;;;31.80;99.90;;;;;;1941338;72;21127;-77
2023/06/07 04:45:14;;;;;;;16.35;10.68;;;31.80;99.90;;;;;;1941193;73;21714;-75
2023/06/07 04:47:45;;;;;;;16.00;11.25;;;31.90;99.90;;;;;;1933853;73;21118;-76
2023/06/07 04:50:20;;;;;;;13.85;10.63;;;32.00;99.90;;;;;;1931773;72;21132;-75
2023/06/07 04:52:50;;;;;;;21.35;11.90;;;32.00;99.90;;;;;;1934917;72;21257;-76
2023/06/07 04:55:22;;;;;;;18.65;11.40;;;32.00;99.90;;;;;;1941184;72;21580;-75
2023/06/07 04:57:54;;;;;;;14.35;10.95;;;32.00;99.90;;;;;;1943474;73;21115;-77
2023/06/07 05:00:26;;;;;;;16.00;11.57;;;31.90;99.90;;;;;;1947780;72;21894;-76
2023/06/07 05:02:57;;;;;;;15.23;10.88;;;31.80;99.90;;;;;;1944386;72;21188;-74
2023/06/07 05:05:28;;;;;;;11.97;10.25;;;31.80;99.90;;;;;;1942780;72;21056;-78
2023/06/07 05:08:00;;;;;;;13.65;10.53;;;31.80;99.90;;;;;;1942448;73;21096;-77
2023/06/07 05:10:32;;;;;;;22.75;11.43;;;31.90;99.90;;;;;;1943776;73;21045;-78
2023/06/07 05:13:03;;;;;;;15.10;10.63;;;32.00;99.90;;;;;;1946516;72;21174;-84
2023/06/07 05:15:35;;;;;;;16.02;11.15;;;32.10;99.90;;;;;;1881357;75;21926;-85
2023/06/07 05:18:19;;;;;;;12.03;10.70;;;32.20;99.90;;;;;;1879818;75;21132;-86
2023/06/07 05:20:55;;;;;;;11.48;9.98;;;32.30;99.90;;;;;;1872332;74;21158;-85
2023/06/07 05:23:27;;;;;;;15.98;11.20;;;32.40;99.90;;;;;;1879021;75;21115;-85
2023/06/07 05:26:00;;;;;;;14.25;11.12;;;32.40;99.90;;;;;;1871743;75;21757;-85
2023/06/07 05:28:31;;;;;;;20.92;10.78;;;32.40;99.70;;;;;;1959143;71;21026;-85
2023/06/07 05:31:03;;;;;;;15.23;11.05;;;32.60;99.90;;;;;;1941982;71;21172;-85
2023/06/07 05:33:49;;;;;;;16.12;11.20;;;32.60;99.40;;;;;;1950123;73;21045;-86
2023/06/07 05:36:20;;;;;;;16.95;12.10;;;32.60;99.90;;;;;;1941624;72;21021;-86
2023/06/07 05:38:54;;;;;;;15.32;11.38;;;32.60;99.90;;;;;;1946160;72;21388;-85
2023/06/07 05:41:27;;;;;;;14.33;10.75;;;32.60;99.90;;;;;;1938147;72;21148;-84
2023/06/07 05:43:58;;;;;;;15.90;12.20;;;32.60;99.50;;;;;;1941189;72;21510;-82
2023/06/07 05:46:30;;;;;;;15.90;11.83;;;32.50;99.70;;;;;;1941758;72;21166;-82
2023/06/07 05:49:20;;;;;;;15.58;12.05;;;32.50;99.90;;;;;;1948982;73;21504;-82
2023/06/07 05:51:54;;;;;;;17.55;12.18;;;32.40;99.90;;;;;;1946929;72;21151;-81
2023/06/07 05:54:29;;;;;;;14.18;11.18;;;32.40;99.90;;;;;;1939130;73;21182;-71
2023/06/07 05:57:07;;;;;;;15.58;13.03;;;32.50;99.90;;;;;;1941495;72;21467;-73
2023/06/07 05:59:38;;;;;;;16.80;12.33;;;32.40;99.90;;;;;;1947896;72;21213;-73
2023/06/07 06:02:10;;;;;;;15.40;12.37;;;32.40;99.90;;;;;;1946033;72;21190;-77
2023/06/07 06:04:43;;;;;;;15.53;12.82;;;32.40;99.90;;;;;;1952777;72;21169;-72
2023/06/07 06:07:15;;;;;;;13.80;12.23;;;32.50;99.90;;;;;;1943250;72;21183;-73
2023/06/07 06:09:47;;;;;;;18.57;12.20;;;32.50;99.90;;;;;;1942776;72;21108;-73
2023/06/07 06:12:18;;;;;;;17.10;12.13;;;32.50;99.90;;;;;;1947287;72;21092;-72
2023/06/07 06:14:50;;;;;;;17.67;11.75;;;32.50;99.90;;;;;;1942768;73;21217;-72
2023/06/07 06:17:21;;;;;;;14.87;11.83;;;32.40;99.90;;;;;;1943211;73;21167;-72
2023/06/07 06:19:53;;;;;;;15.55;12.23;;;32.40;99.90;;;;;;1942144;72;21167;-73
2023/06/07 06:22:25;;;;;;;16.65;11.88;;;32.40;99.90;;;;;;1944601;73;21150;-72
2023/06/07 06:24:57;;;;;;;16.05;12.18;;;32.30;99.90;;;;;;1944252;72;21438;-73
2023/06/07 06:27:28;;;;;;;16.55;11.90;;;32.40;99.90;;;;;;1944379;73;21127;-72
2023/06/07 06:29:59;;;;;;;20.20;13.60;;;32.40;99.90;;;;;;1947361;72;21179;-72
2023/06/07 06:32:31;;;;;;;15.45;11.80;;;32.50;99.90;;;;;;1946546;72;21463;-73
2023/06/07 06:35:03;;;;;;;18.98;12.75;;;32.50;99.50;;;;;;1943163;72;21653;-74
2023/06/07 06:37:35;;;;;;;17.17;12.25;;;32.60;99.90;;;;;;1938548;72;21411;-73
2023/06/07 06:40:08;;;;;;;17.30;12.90;;;32.60;99.50;;;;;;1938457;73;21096;-75
2023/06/07 06:42:39;;;;;;;16.42;11.80;;;32.60;99.50;;;;;;1935719;72;21100;-74
2023/06/07 06:45:11;;;;;;;17.30;11.63;;;32.60;99.90;;;;;;1890910;74;21147;-73
2023/06/07 06:47:42;;;;;;;13.75;11.73;;;32.70;99.50;;;;;;1953470;72;21065;-73
2023/06/07 06:50:14;;;;;;;16.80;12.78;;;32.70;99.10;;;;;;1944939;72;21088;-73
2023/06/07 06:52:50;;;;;;;16.45;11.90;;;32.70;99.30;;;;;;1942962;72;21143;-72
2023/06/07 06:55:22;;;;;;;17.07;12.03;;;32.70;98.40;;;;;;1906600;74;21092;-73
2023/06/07 06:57:53;;;;;;;16.65;11.05;;;32.70;98.40;;;;;;1930493;73;21127;-73
2023/06/07 07:00:25;;;;;;;16.35;12.45;;;32.70;98.00;;;;;;1941208;73;21140;-75
2023/06/07 07:02:56;;;;;;;15.90;12.20;;;32.70;98.60;;;;;;1949231;72;21171;-74
2023/06/07 07:05:27;;;;;;;13.05;10.85;;;32.70;98.80;;;;;;1940184;72;21479;-74
2023/06/07 07:07:59;;;;;;;15.55;10.93;;;32.80;98.80;;;;;;1942210;72;21891;-74
2023/06/07 07:10:31;;;;;;;19.57;11.35;;;32.80;99.00;;;;;;1948180;72;21551;-73
2023/06/07 07:13:02;;;;;;;15.40;10.82;;;32.80;98.70;;;;;;1950270;72;21166;-75
2023/06/07 07:15:38;;;;;;;18.55;11.55;;;32.90;97.90;;;;;;1941366;72;21103;-75
2023/06/07 07:18:15;;;;;;;13.62;10.50;;;32.80;97.80;;;;;;1941639;73;21135;-73
2023/06/07 07:20:43;;;;;;;13.90;10.50;;;32.80;97.90;;;;;;1939588;72;21124;-75
2023/06/07 07:23:14;;;;;;;20.35;10.70;;;32.80;97.80;;;;;;1944582;72;21178;-74
2023/06/07 07:25:48;;;;;;;13.93;10.38;;;32.80;97.80;;;;;;1885794;75;21209;-74
2023/06/07 07:28:21;;;;;;;14.95;11.03;;;32.80;97.90;;;;;;1944347;72;21132;-75
2023/06/07 07:30:52;;;;;;;21.10;11.18;;;32.80;98.10;;;;;;1939235;73;21253;-74
2023/06/07 07:33:24;;;;;;;21.37;11.25;;;32.80;98.70;;;;;;1951692;72;21073;-74
2023/06/07 07:36:02;;;;;;;32.33;13.03;;;32.80;98.60;;;;;;1942935;72;21683;-75
2023/06/07 07:38:40;;;;;;;25.08;11.28;;;32.90;97.90;;;;;;1946597;72;21084;-74
2023/06/07 07:41:13;;;;;;;19.02;10.25;;;32.90;97.00;;;;;;1941367;72;21131;-75
2023/06/07 07:43:47;;;;;;;15.68;10.10;;;33.00;97.40;;;;;;1949040;72;21576;-77
2023/06/07 07:46:20;;;;;;;22.42;10.50;;;32.90;97.60;;;;;;1945284;73;21948;-76
2023/06/07 07:48:52;;;;;;;16.37;10.23;;;32.90;98.20;;;;;;1941508;73;21163;-75
2023/06/07 07:51:24;;;;;;;17.80;10.53;;;32.90;97.70;;;;;;1946214;72;21137;-75
2023/06/07 07:53:56;;;;;;;31.20;11.95;;;33.00;97.80;;;;;;1941235;72;21713;-76
2023/06/07 07:56:28;;;;;;;18.57;11.08;;;32.90;97.60;;;;;;1943559;72;21096;-75
2023/06/07 07:59:02;;;;;;;14.15;9.20;;;32.90;97.70;;;;;;1941569;72;21111;-75
2023/06/07 08:01:34;;;;;;;14.95;10.23;;;32.80;97.70;;;;;;1940836;72;21118;-76
2023/06/07 08:04:05;;;;;;;15.15;10.60;;;32.80;97.60;;;;;;1940728;73;21190;-75
2023/06/07 08:06:42;;;;;;;19.62;13.53;;;32.70;98.20;;;;;;1941334;72;21090;-76
2023/06/07 08:09:11;;;;;;;14.80;10.00;;;32.80;97.50;;;;;;1938304;72;21135;-75
2023/06/07 08:11:46;;;;;;;14.23;10.40;;;32.80;97.50;;;;;;1941816;73;21092;-76
2023/06/07 08:14:19;;;;;;;14.15;10.18;;;32.70;97.50;;;;;;1941047;72;21108;-73
2023/06/07 08:16:52;;;;;;;13.65;9.15;;;32.70;98.10;;;;;;1938011;72;21139;-77
2023/06/07 08:19:23;;;;;;;14.13;9.63;;;32.60;98.20;;;;;;1943167;73;21318;-76
2023/06/07 08:21:55;;;;;;;16.80;10.05;;;32.70;97.70;;;;;;1948410;72;21909;-77
2023/06/07 08:24:27;;;;;;;21.70;11.18;;;32.70;98.30;;;;;;1940044;72;21155;-75
2023/06/07 08:26:58;;;;;;;16.10;9.88;;;32.70;98.10;;;;;;1946776;73;21179;-74
2023/06/07 08:29:29;;;;;;;13.22;8.75;;;32.70;98.00;;;;;;1926473;72;21183;-77
2023/06/07 08:32:01;;;;;;;16.35;11.43;;;32.70;97.90;;;;;;1945958;72;21190;-76
2023/06/07 08:34:32;;;;;;;14.85;9.45;;;32.60;98.00;;;;;;1940391;73;21432;-75
2023/06/07 08:37:08;;;;;;;22.45;11.50;;;32.60;98.10;;;;;;1940169;72;21233;-75
2023/06/07 08:39:40;;;;;;;16.65;9.75;;;32.60;98.30;;;;;;1946225;72;21583;-75
2023/06/07 08:42:12;;;;;;;13.00;10.15;;;32.60;98.30;;;;;;1945779;72;21120;-74
2023/06/07 08:44:43;;;;;;;20.15;10.98;;;32.60;98.10;;;;;;1943910;72;21227;-75
2023/06/07 08:47:17;;;;;;;17.17;13.15;;;32.60;98.40;;;;;;1939300;72;21253;-75
2023/06/07 08:49:53;;;;;;;12.00;8.65;;;32.60;98.30;;;;;;1924787;72;21208;-75
2023/06/07 08:52:25;;;;;;;12.68;8.50;;;32.60;97.50;;;;;;1942049;73;21362;-76
2023/06/07 08:55:00;;;;;;;14.28;8.88;;;32.60;97.10;;;;;;1934708;72;21171;-75
2023/06/07 08:57:33;;;;;;;21.62;10.08;;;32.60;97.20;;;;;;1939141;73;21845;-75
2023/06/07 09:00:08;;;;;;;11.88;8.58;;;32.50;97.70;;;;;;1950672;72;21668;-75
2023/06/07 09:02:42;;;;;;;16.95;10.53;;;32.50;97.90;;;;;;1941436;72;21102;-74
2023/06/07 09:05:12;;;;;;;18.35;9.75;;;32.50;98.40;;;;;;1941746;72;21894;-74
2023/06/07 09:07:47;;;;;;;14.98;9.33;;;32.50;98.10;;;;;;1946926;72;21173;-76
2023/06/07 09:10:22;;;;;;;13.93;9.63;;;32.50;97.70;;;;;;1941329;72;21201;-74
2023/06/07 09:12:55;;;;;;;16.97;9.63;;;32.50;97.80;;;;;;1936675;72;21159;-73
2023/06/07 09:15:27;;;;;;;15.63;10.05;;;32.40;98.30;;;;;;1947489;73;21847;-76
2023/06/07 09:18:02;;;;;;;10.82;8.65;;;32.40;98.50;;;;;;1939728;72;21115;-77
2023/06/07 09:20:35;;;;;;;15.20;9.40;;;32.40;98.10;;;;;;1941399;72;21244;-74
2023/06/07 09:23:13;;;;;;;12.68;8.40;;;32.40;98.00;;;;;;1943780;72;21171;-75
2023/06/07 09:25:47;;;;;;;20.08;10.43;;;32.40;98.00;;;;;;1943973;72;21621;-77
2023/06/07 09:28:18;;;;;;;23.87;10.28;;;32.40;98.70;;;;;;1942461;72;21094;-74
2023/06/07 09:31:00;;;;;;;22.67;9.30;;;32.40;98.90;;;;;;1941833;72;21175;-75
2023/06/07 09:33:35;;;;;;;13.08;8.30;;;32.40;98.90;;;;;;1938616;72;21536;-75
2023/06/07 09:36:10;;;;;;;9.88;6.40;;;32.30;98.90;;;;;;1940972;72;21575;-75
2023/06/07 09:38:43;;;;;;;12.63;6.80;;;32.30;97.60;;;;;;1965360;72;21148;-76
2023/06/07 09:41:15;;;;;;;13.22;7.83;;;32.20;97.90;;;;;;1949988;72;21556;-74
2023/06/07 09:43:47;;;;;;;13.10;7.85;;;32.10;98.10;;;;;;1942886;72;21269;-75
2023/06/07 09:46:22;;;;;;;14.73;8.00;;;32.00;98.50;;;;;;1941709;72;21110;-75
2023/06/07 09:48:54;;;;;;;11.45;7.70;;;31.90;99.00;;;;;;1949959;73;21523;-75
2023/06/07 09:51:27;;;;;;;10.03;7.42;;;31.90;99.30;;;;;;1941040;72;21165;-75
2023/06/07 09:54:05;;;;;;;12.85;8.73;;;31.80;99.20;;;;;;1935377;73;21188;-75
2023/06/07 09:56:43;;;;;;;16.55;8.90;;;31.80;99.40;;;;;;1936728;72;21355;-77
2023/06/07 09:59:16;;;;;;;10.80;7.85;;;31.80;99.40;;;;;;1942462;73;21188;-80
2023/06/07 10:01:51;;;;;;;12.93;7.75;;;31.70;99.10;;;;;;1950152;72;21173;-79
2023/06/07 10:04:21;;;;;;;14.38;7.30;;;31.70;98.80;;;;;;1941953;72;21162;-77
2023/06/07 10:06:57;;;;;;;9.68;5.90;;;31.70;98.60;;;;;;1941930;72;21827;-81
2023/06/07 10:09:30;;;;;;;10.00;6.50;;;31.70;98.20;;;;;;1938937;73;21709;-81
2023/06/07 10:12:07;;;;;;;12.63;9.20;;;31.70;98.30;;;;;;1942467;72;21154;-81
2023/06/07 10:14:42;;;;;;;12.28;8.45;;;31.70;98.20;;;;;;1938974;73;21162;-74
2023/06/07 10:17:15;;;;;;;15.85;8.85;;;31.70;97.90;;;;;;1941513;73;21679;-77
2023/06/07 10:19:48;;;;;;;14.68;6.65;;;31.70;97.60;;;;;;1939269;73;21151;-77
2023/06/07 10:22:22;;;;;;;19.77;7.42;;;31.70;97.90;;;;;;1943812;72;21490;-76
2023/06/07 10:24:56;;;;;;;10.05;8.10;;;31.70;97.70;;;;;;1943017;72;21229;-74
2023/06/07 10:27:30;;;;;;;11.48;8.25;;;31.70;97.80;;;;;;1942216;73;21600;-74
2023/06/07 10:30:16;;;;;;;12.43;8.30;;;31.70;98.10;;;;;;1943310;73;21173;-76
2023/06/07 10:32:50;;;;;;;10.58;7.20;;;31.70;98.00;;;;;;1942117;72;21438;-77
2023/06/07 10:35:21;;;;;;;10.68;7.60;;;31.70;98.30;;;;;;1945382;73;21165;-78
2023/06/07 10:37:54;;;;;;;11.68;7.85;;;31.70;98.50;;;;;;1937583;73;21109;-78
2023/06/07 10:40:26;;;;;;;13.32;9.58;;;31.70;98.60;;;;;;1952769;72;21378;-79
2023/06/07 10:42:58;;;;;;;17.23;10.43;;;31.70;98.80;;;;;;1947163;72;21182;-76
2023/06/07 10:45:30;;;;;;;23.62;7.92;;;31.70;99.10;;;;;;1940072;73;21144;-77
2023/06/07 10:48:20;;;;;;;17.52;4.35;;;31.60;99.40;;;;;;1943673;73;21472;-89
2023/06/07 10:50:54;;;;;;;8.88;3.35;;;31.40;99.80;;;;;;1934937;73;21602;-87
2023/06/07 10:53:26;;;;;;;20.57;4.42;;;31.00;99.90;;;;;;1946456;73;21176;-86
2023/06/07 10:55:59;;;;;;;6.70;2.80;;;30.70;99.90;;;;;;1946553;73;21373;-87
2023/06/07 10:58:31;;;;;;;9.73;3.12;;;30.50;99.90;;;;;;1882263;75;21096;-88
2023/06/07 11:01:04;;;;;;;6.60;3.35;;;30.30;99.90;;;;;;1941934;73;21167;-85
2023/06/07 11:03:40;;;;;;;6.30;2.95;;;30.10;99.90;;;;;;1939718;72;21147;-86
2023/06/07 11:06:12;;;;;;;15.00;3.58;;;29.90;99.90;;;;;;1939783;72;21139;-86
2023/06/07 11:08:46;;;;;;;27.70;4.70;;;29.70;99.90;;;;;;1939541;72;21116;-86
2023/06/07 11:11:36;;;;;;;13.10;3.50;;;29.60;99.90;;;;;;1935765;73;21212;-86
2023/06/07 11:14:10;;;;;;;8.45;3.25;;;29.50;99.90;;;;;;1933301;74;21111;-86
2023/06/07 11:16:42;;;;;;;9.15;4.47;;;29.50;99.90;;;;;;1947780;72;21065;-85
2023/06/07 11:19:18;;;;;;;12.80;4.35;;;29.40;99.90;;;;;;1941507;73;21162;-85
2023/06/07 11:22:06;;;;;;;4.90;3.00;;;29.30;99.90;;;;;;1948114;72;21155;-86
2023/06/07 11:24:39;;;;;;;3.85;2.50;;;29.20;99.90;;;;;;1948688;73;21124;-85
2023/06/07 11:27:14;;;;;;;7.53;3.05;;;29.00;99.90;;;;;;1939042;73;21151;-85
2023/06/07 11:29:46;;;;;;;16.82;4.72;;;28.80;99.90;;;;;;1944794;73;21116;-87
2023/06/07 11:32:18;;;;;;;12.47;4.30;;;28.60;99.90;;;;;;1943730;72;21172;-85
2023/06/07 11:34:57;;;;;;;8.40;3.70;;;28.40;99.90;;;;;;1939756;73;21256;-87
2023/06/07 11:37:29;;;;;;;6.75;3.00;;;28.20;99.90;;;;;;1939946;73;21096;-87
2023/06/07 11:40:04;;;;;;;6.92;2.90;;;27.90;99.90;;;;;;1946053;73;21173;-86
2023/06/07 11:42:36;;;;;;;5.87;2.77;;;27.50;99.90;;;;;;1943617;73;21186;-86
2023/06/07 11:45:08;;;;;;;9.35;3.00;;;27.20;99.90;;;;;;1943897;72;21968;-85
2023/06/07 11:47:41;;;;;;;8.25;4.12;;;27.10;99.90;;;;;;1958182;73;21138;-86
2023/06/07 11:50:13;;;;;;;9.43;4.55;;;27.00;99.90;;;;;;1941231;73;21124;-85
2023/06/07 11:52:46;;;;;;;9.40;5.22;;;27.00;99.90;;;;;;1937872;72;21202;-85
2023/06/07 11:55:18;;;;;;;8.83;4.97;;;27.10;99.90;;;;;;1949772;73;21151;-86
2023/06/07 11:57:53;;;;;;;7.87;4.75;;;27.10;99.90;;;;;;1952636;73;21143;-85
2023/06/07 12:00:25;;;;;;;7.97;4.17;;;27.20;99.90;;;;;;1955034;73;21257;-86
2023/06/07 12:02:58;;;;;;;10.25;4.80;;;27.10;99.90;;;;;;1962150;72;21128;-86
2023/06/07 12:05:34;;;;;;;7.17;4.37;;;27.10;99.90;;;;;;1938536;73;21114;-86
2023/06/07 12:08:16;;;;;;;7.17;3.92;;;27.00;99.90;;;;;;1945087;73;21123;-86
2023/06/07 12:10:55;;;;;;;9.03;4.15;;;27.00;99.90;;;;;;1938676;73;21131;-85
2023/06/07 12:13:30;;;;;;;8.13;3.42;;;27.00;99.90;;;;;;1938547;73;21145;-83
2023/06/07 12:16:00;;;;;;;6.75;4.05;;;27.00;99.90;;;;;;1937709;73;21369;-87
2023/06/07 12:18:35;;;;;;;8.38;3.95;;;27.00;99.90;;;;;;1942895;73;21133;-84
2023/06/07 12:21:15;;;;;;;6.00;3.83;;;27.10;99.90;;;;;;1936156;73;21156;-86
2023/06/07 12:23:55;;;;;;;7.05;3.92;;;27.00;99.90;;;;;;1959031;73;21108;-85
2023/06/07 12:26:27;;;;;;;6.53;3.65;;;27.10;99.90;;;;;;1953525;72;21163;-86
2023/06/07 12:29:02;;;;;;;11.00;5.95;;;27.10;99.90;;;;;;1934399;73;21510;-85
2023/06/07 12:31:33;;;;;;;9.38;5.20;;;27.10;99.90;;;;;;1938941;73;21144;-86
2023/06/07 12:34:09;;;;;;;10.58;4.22;;;27.00;99.90;;;;;;1944337;73;21170;-85
2023/06/07 12:36:46;;;;;;;8.55;4.50;;;26.90;99.90;;;;;;1939730;73;21127;-86
2023/06/07 12:39:21;;;;;;;7.67;4.78;;;26.90;99.90;;;;;;1933353;73;21249;-85
2023/06/07 12:41:57;;;;;;;5.75;4.37;;;27.00;99.90;;;;;;1944716;73;21358;-85
2023/06/07 12:44:34;;;;;;;8.28;5.45;;;27.00;99.90;;;;;;1925291;74;21473;-85
2023/06/07 12:47:10;;;;;;;9.03;5.45;;;26.90;99.90;;;;;;1937569;73;21535;-87
2023/06/07 12:49:42;;;;;;;8.13;5.67;;;27.00;99.90;;;;;;1944355;73;21166;-86
2023/06/07 12:52:16;;;;;;;7.92;5.20;;;27.10;99.90;;;;;;1967357;73;21127;-85
2023/06/07 12:54:48;;;;;;;8.68;5.90;;;27.20;99.90;;;;;;1967386;72;21128;-86
2023/06/07 12:57:23;;;;;;;12.03;5.30;;;27.20;99.90;;;;;;1944746;72;21108;-87
2023/06/07 12:59:58;;;;;;;8.03;5.40;;;27.30;99.90;;;;;;1936208;73;21125;-87
2023/06/07 13:02:31;;;;;;;6.45;4.95;;;27.30;99.90;;;;;;1933838;73;21388;-83
2023/06/07 13:05:10;;;;;;;8.03;4.75;;;27.30;99.90;;;;;;1946693;73;21100;-86
2023/06/07 13:07:45;;;;;;;7.50;5.30;;;27.40;99.90;;;;;;1946119;73;21134;-87